createdAt,value
2018-09-13T00:01:56.585Z,20.00
2018-09-13T00:04:23.619Z,20.00
2018-09-13T00:06:50.637Z,20.10
2018-09-13T00:09:17.716Z,20.00
2018-09-13T00:11:44.772Z,20.00
2018-09-13T00:16:38.886Z,20.00
2018-09-13T00:19:05.920Z,20.00
2018-09-13T00:21:34.416Z,20.00
2018-09-13T00:24:01.468Z,20.00
2018-09-13T00:26:28.501Z,20.00
2018-09-13T00:28:55.519Z,19.90
2018-09-13T00:31:22.573Z,19.80
2018-09-13T00:33:49.595Z,19.70
2018-09-13T00:36:16.609Z,19.70
2018-09-13T00:38:44.476Z,19.70
2018-09-13T00:43:50.679Z,19.80
2018-09-13T00:46:18.544Z,19.90
2018-09-13T00:48:45.562Z,19.90
2018-09-13T00:51:12.632Z,19.70
2018-09-13T00:56:06.774Z,19.80
2018-09-13T00:58:33.877Z,19.70
2018-09-13T01:01:00.847Z,19.50
2018-09-13T01:03:27.880Z,19.40
2018-09-13T01:05:54.935Z,19.50
2018-09-13T01:08:21.954Z,19.50
2018-09-13T01:10:48.996Z,19.50
2018-09-13T01:13:16.061Z,19.50
2018-09-13T01:15:44.114Z,19.40
2018-09-13T01:18:11.994Z,19.30
2018-09-13T01:20:39.053Z,19.30
2018-09-13T01:23:06.087Z,19.20
2018-09-13T01:25:33.135Z,19.20
2018-09-13T01:28:00.182Z,19.20
2018-09-13T01:30:27.210Z,19.20
2018-09-13T01:32:55.102Z,19.20
2018-09-13T01:35:23.020Z,19.10
2018-09-13T01:37:50.887Z,19.10
2018-09-13T01:40:17.915Z,19.10
2018-09-13T01:42:44.957Z,19.00
2018-09-13T01:45:11.989Z,19.10
2018-09-13T01:47:39.024Z,19.00
2018-09-13T01:50:07.049Z,19.00
2018-09-13T01:52:34.063Z,19.00
2018-09-13T01:55:01.109Z,19.00
2018-09-13T01:57:28.172Z,18.90
2018-09-13T02:02:35.719Z,18.80
2018-09-13T02:05:02.742Z,18.80
2018-09-13T02:09:56.886Z,18.80
2018-09-13T02:12:24.685Z,18.60
2018-09-13T02:14:51.704Z,18.60
2018-09-13T02:17:18.772Z,18.60
2018-09-13T02:19:46.643Z,18.50
2018-09-13T02:22:13.660Z,18.50
2018-09-13T02:24:40.709Z,18.40
2018-09-13T02:27:07.741Z,18.30
2018-09-13T02:29:34.749Z,18.30
2018-09-13T02:32:01.804Z,18.20
2018-09-13T02:34:29.729Z,18.10
2018-09-13T02:36:56.761Z,18.20
2018-09-13T02:39:23.814Z,18.10
2018-09-13T02:41:50.849Z,18.10
2018-09-13T02:44:17.876Z,17.90
2018-09-13T02:46:44.952Z,17.90
2018-09-13T02:49:12.028Z,18.00
2018-09-13T02:51:39.864Z,18.10
2018-09-13T02:54:06.915Z,18.10
2018-09-13T02:56:33.931Z,18.10
2018-09-13T02:59:00.961Z,18.20
2018-09-13T03:01:28.020Z,18.20
2018-09-13T03:03:55.056Z,18.20
2018-09-13T03:06:22.086Z,18.10
2018-09-13T03:11:18.059Z,18.00
2018-09-13T03:13:45.080Z,18.00
2018-09-13T03:16:12.841Z,18.00
2018-09-13T03:21:21.341Z,18.10
2018-09-13T03:23:49.617Z,18.20
2018-09-13T03:28:44.708Z,18.20
2018-09-13T03:31:11.724Z,18.20
2018-09-13T03:33:38.754Z,18.00
2018-09-13T03:36:06.644Z,18.00
2018-09-13T03:38:33.684Z,18.00
2018-09-13T03:41:00.700Z,17.90
2018-09-13T03:43:27.743Z,17.90
2018-09-13T03:45:54.792Z,18.00
2018-09-13T03:48:22.760Z,18.00
2018-09-13T03:50:50.274Z,17.90
2018-09-13T03:53:18.219Z,17.90
2018-09-13T03:55:45.240Z,17.90
2018-09-13T03:58:13.119Z,17.90
2018-09-13T04:00:40.152Z,17.90
2018-09-13T04:03:08.060Z,17.80
2018-09-13T04:05:35.983Z,17.90
2018-09-13T04:08:03.016Z,17.90
2018-09-13T04:10:30.049Z,17.80
2018-09-13T04:12:57.096Z,17.90
2018-09-13T04:15:24.114Z,17.90
2018-09-13T04:20:31.347Z,17.70
2018-09-13T04:22:58.364Z,17.80
2018-09-13T04:25:25.401Z,17.80
2018-09-13T04:27:52.456Z,17.80
2018-09-13T04:30:20.421Z,17.90
2018-09-13T04:32:47.447Z,17.90
2018-09-13T04:35:14.522Z,17.80
2018-09-13T04:37:42.333Z,17.60
2018-09-13T04:40:09.367Z,17.70
2018-09-13T04:45:04.366Z,17.80
2018-09-13T04:47:32.371Z,17.90
2018-09-13T04:49:59.433Z,17.90
2018-09-13T04:52:27.420Z,17.80
2018-09-13T04:54:54.441Z,17.70
2018-09-13T04:57:21.498Z,17.70
2018-09-13T04:59:49.472Z,17.60
2018-09-13T05:02:16.478Z,17.70
2018-09-13T05:04:43.585Z,17.70
2018-09-13T05:07:11.392Z,17.60
2018-09-13T05:09:38.426Z,17.60
2018-09-13T05:12:06.336Z,17.60
2018-09-13T05:14:33.368Z,17.60
2018-09-13T05:19:38.581Z,17.50
2018-09-13T05:22:05.618Z,17.50
2018-09-13T05:26:59.802Z,17.50
2018-09-13T05:29:26.808Z,17.50
2018-09-13T05:31:53.847Z,17.50
2018-09-13T05:34:20.912Z,17.50
2018-09-13T05:36:47.943Z,17.50
2018-09-13T05:39:16.007Z,17.40
2018-09-13T05:41:43.080Z,17.40
2018-09-13T05:44:10.925Z,17.40
2018-09-13T05:46:37.981Z,17.50
2018-09-13T05:49:05.081Z,17.50
2018-09-13T05:51:33.112Z,17.50
2018-09-13T05:54:00.134Z,17.50
2018-09-13T05:56:27.186Z,17.60
2018-09-13T05:58:55.058Z,17.50
2018-09-13T06:01:22.118Z,17.50
2018-09-13T06:03:50.022Z,17.40
2018-09-13T06:06:17.054Z,17.50
2018-09-13T06:08:44.091Z,17.50
2018-09-13T06:11:11.131Z,17.50
2018-09-13T06:13:38.189Z,17.60
2018-09-13T06:16:05.185Z,17.50
2018-09-13T06:18:32.239Z,17.60
2018-09-13T06:23:26.330Z,17.60
2018-09-13T06:28:33.380Z,17.70
2018-09-13T06:35:57.316Z,17.90
2018-09-13T06:38:25.359Z,18.10
2018-09-13T06:40:53.104Z,18.30
2018-09-13T06:45:48.214Z,18.60
2018-09-13T06:48:16.638Z,18.50
2018-09-13T06:50:43.656Z,18.50
2018-09-13T06:53:10.723Z,18.60
2018-09-13T06:55:38.629Z,18.40
2018-09-13T06:58:05.667Z,18.70
2018-09-13T07:00:33.751Z,19.20
2018-09-13T07:03:00.801Z,19.20
2018-09-13T07:05:27.831Z,19.30
2018-09-13T07:07:55.780Z,19.40
2018-09-13T07:10:22.825Z,19.70
2018-09-13T07:12:49.875Z,19.80
2018-09-13T07:15:16.919Z,19.50
2018-09-13T07:17:43.970Z,20.10
2018-09-13T07:20:10.995Z,20.10
2018-09-13T07:22:38.142Z,20.30
2018-09-13T07:27:44.039Z,20.70
2018-09-13T07:30:11.062Z,21.00
2018-09-13T07:32:38.116Z,21.20
2018-09-13T07:35:05.178Z,21.50
2018-09-13T07:37:32.706Z,21.70
2018-09-13T07:39:59.720Z,21.60
2018-09-13T07:47:21.022Z,21.80
2018-09-13T07:49:48.248Z,21.90
2018-09-13T07:52:15.131Z,22.10
2018-09-13T07:54:42.957Z,22.30
2018-09-13T07:57:10.933Z,22.20
2018-09-13T07:59:38.975Z,22.10
2018-09-13T08:02:06.018Z,22.10
2018-09-13T08:04:33.926Z,22.30
2018-09-13T08:07:01.688Z,22.30
2018-09-13T08:09:28.711Z,22.70
2018-09-13T08:11:56.229Z,23.00
2018-09-13T08:14:23.191Z,23.40
2018-09-13T08:16:50.214Z,23.60
2018-09-13T08:19:17.276Z,23.70
2018-09-13T08:21:45.220Z,23.90
2018-09-13T08:24:13.167Z,24.10
2018-09-13T08:26:40.227Z,24.20
2018-09-13T08:29:07.245Z,24.10
2018-09-13T08:31:34.266Z,24.20
2018-09-13T08:34:02.141Z,24.40
2018-09-13T08:36:30.112Z,24.50
2018-09-13T08:38:57.156Z,24.80
2018-09-13T08:41:25.172Z,25.00
2018-09-13T08:43:52.206Z,24.30
2018-09-13T08:46:19.245Z,24.50
2018-09-13T08:48:46.323Z,24.70
2018-09-13T08:53:40.993Z,24.50
2018-09-13T08:58:49.048Z,25.00
2018-09-13T09:03:44.088Z,25.70
2018-09-13T09:06:11.993Z,24.80
2018-09-13T09:08:39.001Z,25.20
2018-09-13T09:11:06.865Z,25.30
2018-09-13T09:13:33.907Z,25.80
2018-09-13T09:16:00.966Z,25.90
2018-09-13T09:18:29.003Z,26.00
2018-09-13T09:20:55.998Z,25.80
2018-09-13T09:23:23.053Z,25.90
2018-09-13T09:25:50.094Z,25.40
2018-09-13T09:28:17.110Z,25.10
2018-09-13T09:30:45.181Z,25.10
2018-09-13T09:33:13.066Z,26.00
2018-09-13T09:35:40.116Z,26.30
2018-09-13T09:38:07.182Z,26.00
2018-09-13T09:40:34.283Z,25.60
2018-09-13T09:43:01.284Z,25.40
2018-09-13T09:45:28.353Z,25.00
2018-09-13T09:47:56.242Z,25.70
2018-09-13T09:50:23.280Z,26.40
2018-09-13T09:52:50.352Z,26.90
2018-09-13T09:55:17.393Z,26.60
2018-09-13T09:57:44.437Z,26.90
2018-09-13T10:00:12.259Z,27.10
2018-09-13T10:02:39.320Z,27.40
2018-09-13T10:05:06.377Z,28.20
2018-09-13T10:07:33.454Z,28.30
2018-09-13T10:10:00.495Z,28.40
2018-09-13T10:12:27.540Z,28.30
2018-09-13T10:14:54.616Z,28.00
2018-09-13T10:17:21.659Z,28.10
2018-09-13T10:19:48.695Z,28.30
2018-09-13T10:24:54.775Z,28.30
2018-09-13T10:27:21.835Z,28.60
2018-09-13T10:29:48.940Z,28.10
2018-09-13T10:32:15.904Z,28.00
2018-09-13T10:34:43.934Z,28.50
2018-09-13T10:37:12.904Z,28.10
2018-09-13T10:39:42.785Z,28.40
2018-09-13T10:42:08.775Z,28.10
2018-09-13T10:44:35.813Z,28.10
2018-09-13T10:47:02.849Z,28.10
2018-09-13T10:49:30.713Z,28.40
2018-09-13T10:51:57.745Z,28.60
2018-09-13T10:54:24.823Z,27.80
2018-09-13T10:56:51.838Z,28.30
2018-09-13T11:01:46.819Z,28.30
2018-09-13T11:04:14.003Z,27.80
2018-09-13T11:06:41.756Z,27.80
2018-09-13T11:09:08.782Z,28.50
2018-09-13T11:11:36.196Z,28.60
2018-09-13T11:14:03.226Z,29.20
2018-09-13T11:16:30.243Z,29.70
2018-09-13T11:21:25.850Z,29.80
2018-09-13T11:23:53.835Z,29.00
2018-09-13T11:31:15.191Z,28.60
2018-09-13T11:33:42.227Z,28.00
2018-09-13T11:36:09.267Z,28.90
2018-09-13T11:38:36.331Z,29.70
2018-09-13T11:43:44.861Z,29.60
2018-09-13T11:46:12.776Z,29.40
2018-09-13T11:48:39.801Z,29.90
2018-09-13T11:51:06.865Z,28.80
2018-09-13T11:53:33.880Z,29.40
2018-09-13T11:56:00.909Z,28.30
2018-09-13T11:58:27.931Z,28.70
2018-09-13T12:00:54.987Z,29.50
2018-09-13T12:03:22.045Z,29.80
2018-09-13T12:08:16.205Z,30.50
2018-09-13T12:10:43.224Z,30.00
2018-09-13T12:13:10.233Z,29.70
2018-09-13T12:15:37.283Z,30.30
2018-09-13T12:18:04.403Z,30.80
2018-09-13T12:22:59.392Z,30.30
2018-09-13T12:25:26.413Z,30.80
2018-09-13T12:27:53.413Z,30.60
2018-09-13T12:30:20.461Z,30.80
2018-09-13T12:35:27.470Z,29.70
2018-09-13T12:37:54.496Z,29.90
2018-09-13T12:40:21.489Z,30.80
2018-09-13T12:42:48.569Z,31.10
2018-09-13T12:45:15.590Z,31.30
2018-09-13T12:47:42.589Z,31.40
2018-09-13T12:50:09.627Z,31.50
2018-09-13T12:52:37.452Z,31.50
2018-09-13T12:55:04.471Z,31.40
2018-09-13T12:57:32.466Z,31.60
2018-09-13T13:00:00.433Z,31.80
2018-09-13T13:02:27.442Z,31.90
2018-09-13T13:04:54.479Z,30.60
2018-09-13T13:07:21.476Z,30.80
2018-09-13T13:09:48.481Z,31.20
2018-09-13T13:12:15.527Z,31.70
2018-09-13T13:14:42.554Z,31.40
2018-09-13T13:17:09.570Z,31.50
2018-09-13T13:19:36.619Z,30.50
2018-09-13T13:22:03.644Z,30.10
2018-09-13T13:24:30.660Z,29.70
2018-09-13T13:26:57.786Z,29.50
2018-09-13T13:29:24.775Z,29.40
2018-09-13T13:31:51.846Z,29.40
2018-09-13T13:34:19.006Z,29.20
2018-09-13T13:36:46.014Z,28.60
2018-09-13T13:39:13.019Z,28.60
2018-09-13T13:41:41.039Z,28.50
2018-09-13T13:44:08.101Z,28.70
2018-09-13T13:46:35.089Z,28.90
2018-09-13T13:49:02.133Z,29.10
2018-09-13T13:51:30.001Z,29.30
2018-09-13T13:56:36.484Z,29.00
2018-09-13T13:59:03.509Z,29.10
2018-09-13T14:03:57.687Z,28.90
2018-09-13T14:06:24.712Z,29.00
2018-09-13T14:08:51.747Z,28.10
2018-09-13T14:11:18.797Z,27.60
2018-09-13T14:13:45.814Z,27.10
2018-09-13T14:16:12.854Z,26.50
2018-09-13T14:18:39.909Z,26.30
2018-09-13T14:21:06.940Z,25.80
2018-09-13T14:23:33.972Z,25.60
2018-09-13T14:26:01.030Z,25.30
2018-09-13T14:28:28.062Z,24.90
2018-09-13T14:33:22.239Z,24.80
2018-09-13T14:35:49.267Z,24.70
2018-09-13T14:38:16.928Z,24.30
2018-09-13T14:40:44.173Z,24.20
2018-09-13T14:43:11.925Z,24.30
2018-09-13T14:45:38.995Z,24.20
2018-09-13T14:48:06.011Z,24.00
2018-09-13T14:50:33.975Z,23.80
2018-09-13T14:53:00.996Z,23.80
2018-09-13T14:55:28.048Z,23.80
2018-09-13T14:57:55.077Z,23.90
2018-09-13T15:00:22.070Z,23.70
2018-09-13T15:05:29.111Z,24.10
2018-09-13T15:12:50.428Z,24.50
2018-09-13T15:15:17.418Z,24.50
2018-09-13T15:17:44.431Z,24.60
2018-09-13T15:20:11.446Z,24.60
2018-09-13T15:22:38.489Z,24.60
2018-09-13T15:25:05.503Z,24.80
2018-09-13T15:27:32.512Z,24.80
2018-09-13T15:34:53.761Z,23.50
2018-09-13T15:39:58.960Z,23.40
2018-09-13T15:42:26.018Z,23.80
2018-09-13T15:44:53.023Z,23.10
2018-09-13T15:47:20.058Z,23.20
2018-09-13T15:49:47.098Z,23.10
2018-09-13T15:52:14.136Z,23.20
2018-09-13T15:57:08.290Z,23.50
2018-09-13T15:59:35.315Z,23.60
2018-09-13T16:02:02.327Z,23.80
2018-09-13T16:04:29.386Z,23.70
2018-09-13T16:06:56.417Z,23.60
2018-09-13T16:11:50.598Z,23.50
2018-09-13T16:14:17.608Z,23.50
2018-09-13T16:16:44.623Z,23.70
2018-09-13T16:19:11.675Z,23.80
2018-09-13T16:21:38.700Z,23.90
2018-09-13T16:29:00.009Z,23.50
2018-09-13T16:31:27.025Z,23.40
2018-09-13T16:33:54.370Z,23.50
2018-09-13T16:36:21.334Z,23.50
2018-09-13T16:41:26.930Z,23.60
2018-09-13T16:46:21.108Z,23.10
2018-09-13T16:48:48.122Z,22.90
2018-09-13T16:51:15.974Z,22.40
2018-09-13T16:53:43.456Z,22.20
2018-09-13T16:56:11.370Z,22.10
2018-09-13T16:58:39.320Z,22.20
2018-09-13T17:01:06.352Z,22.10
2018-09-13T17:03:33.402Z,21.80
2018-09-13T17:06:00.426Z,22.10
2018-09-13T17:08:28.317Z,22.40
2018-09-13T17:10:55.357Z,22.60
2018-09-13T17:13:22.363Z,22.70
2018-09-13T17:15:49.374Z,22.90
2018-09-13T17:18:16.419Z,22.80
2018-09-13T17:20:43.445Z,22.90
2018-09-13T17:23:10.465Z,22.80
2018-09-13T17:25:38.456Z,22.80
2018-09-13T17:28:05.464Z,22.80
2018-09-13T17:30:32.471Z,22.80
2018-09-13T17:32:59.516Z,22.80
2018-09-13T17:37:54.346Z,22.60
2018-09-13T17:40:22.200Z,22.60
2018-09-13T17:42:49.203Z,22.50
2018-09-13T17:45:16.239Z,22.40
2018-09-13T17:47:43.291Z,22.40
2018-09-13T17:50:10.316Z,22.40
2018-09-13T17:52:38.102Z,22.50
2018-09-13T17:55:05.125Z,22.60
2018-09-13T17:57:32.127Z,22.60
2018-09-13T17:59:59.118Z,22.50
2018-09-13T18:02:26.158Z,22.20
2018-09-13T18:07:34.667Z,22.30
2018-09-13T18:10:01.677Z,22.20
2018-09-13T18:12:28.682Z,22.00
2018-09-13T18:14:55.735Z,21.70
2018-09-13T18:17:22.787Z,21.60
2018-09-13T18:19:49.791Z,21.80
2018-09-13T18:22:16.837Z,21.90
2018-09-13T18:24:43.857Z,22.00
2018-09-13T18:27:10.869Z,22.00
2018-09-13T18:29:37.911Z,22.00
2018-09-13T18:32:04.913Z,22.00
2018-09-13T18:34:31.919Z,22.00
2018-09-13T18:36:58.954Z,21.90
2018-09-13T18:39:25.978Z,21.70
2018-09-13T18:41:53.000Z,21.40
2018-09-13T18:44:20.878Z,21.10
2018-09-13T18:46:47.920Z,20.80
2018-09-13T18:49:14.933Z,20.90
2018-09-13T18:54:09.174Z,21.00
2018-09-13T18:56:36.108Z,20.90
2018-09-13T18:59:03.164Z,20.70
2018-09-13T19:01:30.179Z,20.60
2018-09-13T19:03:57.211Z,20.70
2018-09-13T19:11:18.496Z,20.20
2018-09-13T19:13:46.244Z,20.20
2018-09-13T19:16:13.311Z,20.40
2018-09-13T19:23:45.342Z,20.50
2018-09-13T19:26:12.417Z,20.40
2018-09-13T19:28:39.460Z,20.40
2018-09-13T19:31:06.562Z,20.60
2018-09-13T19:33:33.621Z,20.50
2018-09-13T19:36:00.644Z,20.50
2018-09-13T19:38:28.547Z,20.40
2018-09-13T19:40:56.554Z,20.30
2018-09-13T19:43:23.612Z,20.10
2018-09-13T19:45:50.752Z,19.90
2018-09-13T19:48:18.829Z,19.70
2018-09-13T19:50:45.895Z,19.80
2018-09-13T19:53:12.878Z,19.80
2018-09-13T19:55:40.001Z,19.80
2018-09-13T19:58:10.027Z,19.90
2018-09-13T20:00:37.049Z,19.90
2018-09-13T20:03:04.163Z,20.10
2018-09-13T20:05:32.173Z,20.20
2018-09-13T20:10:38.407Z,19.80
2018-09-13T20:13:05.421Z,19.90
2018-09-13T20:15:32.529Z,20.10
2018-09-13T20:17:59.579Z,20.00
2018-09-13T20:20:26.600Z,20.10
2018-09-13T20:22:53.607Z,20.20
2018-09-13T20:27:47.783Z,20.20
2018-09-13T20:30:14.851Z,20.20
2018-09-13T20:32:41.893Z,20.20
2018-09-13T20:37:47.082Z,20.30
2018-09-13T20:40:14.111Z,20.30
2018-09-13T20:42:41.220Z,20.20
2018-09-13T20:45:08.376Z,20.20
2018-09-13T20:50:02.580Z,20.20
2018-09-13T20:52:29.707Z,20.30
2018-09-13T20:57:32.272Z,20.20
2018-09-13T21:00:00.099Z,20.30
2018-09-13T21:02:27.104Z,20.30
2018-09-13T21:04:54.144Z,20.20
2018-09-13T21:07:21.149Z,20.30
2018-09-13T21:09:48.143Z,20.30
2018-09-13T21:12:15.224Z,20.30
2018-09-13T21:14:43.142Z,20.30
2018-09-13T21:17:10.253Z,20.20
2018-09-13T21:19:37.232Z,20.30
2018-09-13T21:22:04.616Z,20.20
2018-09-13T21:27:10.752Z,20.40
2018-09-13T21:29:37.782Z,20.40
2018-09-13T21:32:05.004Z,20.50
2018-09-13T21:34:31.843Z,20.50
2018-09-13T21:36:58.850Z,20.50
2018-09-13T21:39:25.878Z,20.60
2018-09-13T21:41:52.910Z,20.50
2018-09-13T21:44:20.218Z,20.40
2018-09-13T21:49:14.118Z,20.10
2018-09-13T21:51:41.137Z,19.90
2018-09-13T21:54:08.157Z,19.80
2018-09-13T21:56:35.300Z,19.50
2018-09-13T21:59:04.937Z,19.60
2018-09-13T22:03:58.334Z,19.60
2018-09-13T22:06:26.188Z,19.70
2018-09-13T22:08:54.002Z,19.60
2018-09-13T22:11:21.068Z,19.70
2018-09-13T22:13:48.041Z,19.70
2018-09-13T22:18:56.178Z,19.50
2018-09-13T22:21:26.176Z,19.40
2018-09-13T22:23:52.323Z,19.40
2018-09-13T22:26:19.419Z,19.40
2018-09-13T22:28:46.420Z,19.30
2018-09-13T22:31:13.422Z,19.30
2018-09-13T22:33:40.462Z,19.30
2018-09-13T22:36:07.461Z,19.10
2018-09-13T22:38:34.471Z,18.90
2018-09-13T22:41:01.507Z,18.60
2018-09-13T22:43:28.516Z,18.60
2018-09-13T22:45:56.340Z,18.50
2018-09-13T22:51:01.472Z,18.30
2018-09-13T22:53:28.628Z,18.10
2018-09-13T22:55:55.517Z,18.20
2018-09-13T22:58:22.511Z,17.90
2018-09-13T23:00:49.541Z,17.60
2018-09-13T23:03:16.534Z,17.50
2018-09-13T23:05:43.524Z,17.50
2018-09-13T23:08:10.555Z,17.50
2018-09-13T23:10:37.561Z,17.50
2018-09-13T23:13:04.565Z,17.40
2018-09-13T23:15:32.055Z,17.40
2018-09-13T23:17:59.774Z,17.50
2018-09-13T23:20:26.641Z,17.30
2018-09-13T23:27:48.635Z,17.30
2018-09-13T23:30:15.693Z,17.20
2018-09-13T23:32:43.530Z,17.00
2018-09-13T23:35:10.537Z,16.90
2018-09-13T23:37:37.590Z,17.00
2018-09-13T23:40:04.616Z,16.90
2018-09-13T23:42:31.605Z,16.80
2018-09-13T23:44:58.661Z,16.70
2018-09-13T23:47:26.513Z,16.70
2018-09-13T23:52:20.650Z,16.60
2018-09-13T23:54:47.652Z,16.60
2018-09-13T23:59:41.771Z,16.70
